createdAt,value
2023-02-02T00:04:32.563Z,101996.69
2023-02-02T00:09:34.217Z,102014.69
2023-02-02T00:14:35.885Z,102007.25
2023-02-02T00:19:37.499Z,102025.28
2023-02-02T00:24:39.062Z,102017.06
2023-02-02T00:29:40.827Z,102012.72
2023-02-02T00:34:42.428Z,102001.72
2023-02-02T00:39:44.114Z,101997.41
2023-02-02T00:45:04.441Z,102003.03
2023-02-02T00:50:06.777Z,101999.03
2023-02-02T00:55:09.271Z,101995.06
2023-02-02T01:00:14.096Z,101994.09
2023-02-02T01:05:16.807Z,102000.50
2023-02-02T01:10:19.020Z,101994.94
2023-02-02T01:15:20.788Z,101991.44
2023-02-02T01:20:24.558Z,101987.53
2023-02-02T01:25:27.501Z,101982.50
2023-02-02T01:30:30.023Z,101988.34
2023-02-02T01:35:32.372Z,101990.72
2023-02-02T01:40:33.953Z,101988.00
2023-02-02T01:45:35.748Z,101979.56
2023-02-02T01:50:37.510Z,101985.66
2023-02-02T01:55:41.473Z,101988.81
2023-02-02T02:00:46.636Z,101989.97
2023-02-02T02:05:53.929Z,101984.72
2023-02-02T02:10:56.250Z,101975.91
2023-02-02T02:16:21.286Z,101977.53
2023-02-02T02:22:18.451Z,101979.84
2023-02-02T02:27:58.469Z,101958.84
2023-02-02T02:33:11.769Z,101965.56
2023-02-02T02:38:42.339Z,101969.56
2023-02-02T02:43:50.674Z,101971.16
2023-02-02T02:48:52.638Z,101967.88
2023-02-02T02:53:54.746Z,101976.38
2023-02-02T02:59:38.743Z,101986.59
2023-02-02T03:04:59.629Z,101991.28
2023-02-02T03:10:04.398Z,102003.25
2023-02-02T03:15:06.861Z,102002.09
2023-02-02T03:20:10.170Z,101996.63
2023-02-02T03:25:11.887Z,101993.63
2023-02-02T03:30:14.242Z,101978.31
2023-02-02T03:35:16.040Z,101991.03
2023-02-02T03:40:18.618Z,101979.03
2023-02-02T03:45:20.226Z,101984.81
2023-02-02T03:50:22.248Z,101984.81
2023-02-02T03:55:24.261Z,101983.94
2023-02-02T04:00:26.181Z,101978.84
2023-02-02T04:05:28.250Z,101992.75
2023-02-02T04:10:29.949Z,101992.94
2023-02-02T04:15:31.564Z,101993.66
2023-02-02T04:20:33.141Z,102005.91
2023-02-02T04:25:34.715Z,101996.22
2023-02-02T04:30:36.307Z,102003.16
2023-02-02T04:35:38.030Z,101995.47
2023-02-02T04:40:45.302Z,101997.84
2023-02-02T04:45:46.913Z,102009.13
2023-02-02T04:50:49.919Z,102006.25
2023-02-02T04:55:51.484Z,102005.13
2023-02-02T05:00:53.177Z,102006.50
2023-02-02T05:06:02.660Z,102010.84
2023-02-02T05:11:08.402Z,102005.78
2023-02-02T05:16:10.196Z,102010.72
2023-02-02T05:21:11.910Z,102005.31
2023-02-02T05:26:31.479Z,102016.94
2023-02-02T05:31:33.452Z,102006.38
2023-02-02T05:36:35.132Z,102016.47
2023-02-02T05:41:36.941Z,102008.25
2023-02-02T05:46:38.694Z,102022.78
2023-02-02T05:51:48.470Z,102023.28
2023-02-02T05:56:53.161Z,102021.56
2023-02-02T06:01:54.992Z,102019.00
2023-02-02T06:06:56.668Z,102037.47
2023-02-02T06:11:58.291Z,102032.59
2023-02-02T06:16:59.939Z,102048.97
2023-02-02T06:22:01.584Z,102052.56
2023-02-02T06:27:03.271Z,102058.16
2023-02-02T06:32:05.071Z,102058.16
2023-02-02T06:37:06.922Z,102063.53
2023-02-02T06:42:20.464Z,102060.03
2023-02-02T06:47:24.550Z,102049.50
2023-02-02T06:52:27.594Z,102063.06
2023-02-02T06:57:29.369Z,102074.75
2023-02-02T07:02:31.062Z,102069.28
2023-02-02T07:07:34.290Z,102082.78
2023-02-02T07:12:35.934Z,102097.34
2023-02-02T07:17:37.577Z,102108.91
2023-02-02T07:22:40.298Z,102108.69
2023-02-02T07:27:41.942Z,102114.41
2023-02-02T07:32:50.515Z,102119.47
2023-02-02T07:37:56.141Z,102116.41
2023-02-02T07:43:00.608Z,102131.94
2023-02-02T07:48:03.251Z,102124.81
2023-02-02T07:53:04.863Z,102147.09
2023-02-02T07:58:07.912Z,102139.50
2023-02-02T08:03:12.483Z,102137.50
2023-02-02T08:08:14.117Z,102136.66
2023-02-02T08:13:15.921Z,102143.13
2023-02-02T08:18:17.558Z,102150.34
2023-02-02T08:23:23.599Z,102146.38
2023-02-02T08:28:25.415Z,102161.44
2023-02-02T08:33:28.140Z,102161.19
2023-02-02T08:38:30.143Z,102168.06
2023-02-02T08:43:31.740Z,102168.31
2023-02-02T08:48:34.478Z,102176.78
2023-02-02T08:53:38.219Z,102174.41
2023-02-02T08:58:40.782Z,102176.91
2023-02-02T09:03:44.234Z,102177.03
2023-02-02T09:08:46.740Z,102194.44
2023-02-02T09:13:53.007Z,102201.94
2023-02-02T09:18:55.708Z,102195.25
2023-02-02T09:23:57.383Z,102193.47
2023-02-02T09:29:04.411Z,102206.94
2023-02-02T09:34:12.084Z,102201.03
2023-02-02T09:39:15.157Z,102193.69
2023-02-02T09:44:54.704Z,102192.19
2023-02-02T09:50:05.897Z,102211.09
2023-02-02T09:55:19.384Z,102207.34
2023-02-02T10:00:36.323Z,102226.28
2023-02-02T10:05:52.965Z,102233.03
2023-02-02T10:10:54.947Z,102232.53
2023-02-02T10:16:07.049Z,102240.50
2023-02-02T10:21:18.991Z,102248.72
2023-02-02T10:26:44.870Z,102249.94
2023-02-02T10:32:08.505Z,102247.19
2023-02-02T10:37:48.166Z,102239.47
2023-02-02T10:43:33.485Z,102247.63
2023-02-02T10:48:35.944Z,102250.84
2023-02-02T10:53:38.539Z,102252.38
2023-02-02T10:58:57.867Z,102252.84
2023-02-02T11:04:25.598Z,102257.00
2023-02-02T11:09:32.490Z,102266.69
2023-02-02T11:14:46.153Z,102250.25
2023-02-02T11:19:49.836Z,102253.47
2023-02-02T11:24:53.834Z,102263.84
2023-02-02T11:29:59.165Z,102267.31
2023-02-02T11:35:06.725Z,102262.59
2023-02-02T11:40:28.326Z,102263.84
2023-02-02T11:45:36.807Z,102253.38
2023-02-02T11:50:38.809Z,102252.25
2023-02-02T11:55:43.390Z,102266.34
2023-02-02T12:01:22.996Z,102260.88
2023-02-02T12:06:27.341Z,102254.44
2023-02-02T12:11:57.135Z,102249.94
2023-02-02T12:17:18.242Z,102259.03
2023-02-02T12:22:39.098Z,102246.44
2023-02-02T12:27:58.419Z,102250.94
2023-02-02T12:33:35.013Z,102252.69
2023-02-02T12:38:45.568Z,102240.50
2023-02-02T12:44:27.707Z,102240.41
2023-02-02T12:49:59.581Z,102243.06
2023-02-02T12:55:07.180Z,102232.84
2023-02-02T13:00:38.006Z,102238.84
2023-02-02T13:06:18.062Z,102231.59
2023-02-02T13:11:32.834Z,102240.84
2023-02-02T13:16:38.276Z,102233.09
2023-02-02T13:21:41.704Z,102235.38
2023-02-02T13:26:47.789Z,102224.34
2023-02-02T13:32:02.458Z,102234.34
2023-02-02T13:37:16.126Z,102227.09
2023-02-02T13:42:46.976Z,102219.16
2023-02-02T13:47:56.543Z,102223.84
2023-02-02T13:53:36.460Z,102219.91
2023-02-02T13:58:38.072Z,102227.38
2023-02-02T14:03:51.288Z,102239.81
2023-02-02T14:08:57.948Z,102232.34
2023-02-02T14:14:27.411Z,102224.13
2023-02-02T14:19:28.916Z,102238.06
2023-02-02T14:24:30.450Z,102238.84
2023-02-02T14:29:32.084Z,102241.34
2023-02-02T14:34:42.492Z,102243.94
2023-02-02T14:40:07.203Z,102247.66
2023-02-02T14:45:11.566Z,102248.50
2023-02-02T14:50:18.217Z,102259.75
2023-02-02T14:55:21.538Z,102257.75
2023-02-02T15:00:28.238Z,102257.91
2023-02-02T15:05:30.698Z,102268.47
2023-02-02T15:10:57.504Z,102263.63
2023-02-02T15:16:13.988Z,102266.94
2023-02-02T15:21:21.872Z,102256.72
2023-02-02T15:26:32.920Z,102264.94
2023-02-02T15:31:44.174Z,102258.50
2023-02-02T15:36:48.635Z,102273.69
2023-02-02T15:42:10.718Z,102267.34
2023-02-02T15:47:28.926Z,102272.66
2023-02-02T15:52:38.080Z,102279.78
2023-02-02T15:57:44.812Z,102282.91
2023-02-02T16:02:49.687Z,102283.66
2023-02-02T16:08:03.737Z,102290.28
2023-02-02T16:13:07.931Z,102298.09
2023-02-02T16:18:15.463Z,102312.31
2023-02-02T16:23:23.769Z,102308.31
2023-02-02T16:28:26.087Z,102305.72
2023-02-02T16:33:33.573Z,102295.75
2023-02-02T16:38:37.353Z,102310.81
2023-02-02T16:43:41.610Z,102308.94
2023-02-02T16:49:01.653Z,102305.56
2023-02-02T16:54:06.192Z,102317.66
2023-02-02T16:59:16.665Z,102323.75
2023-02-02T17:04:36.704Z,102324.25
2023-02-02T17:09:43.096Z,102320.78
2023-02-02T17:15:00.364Z,102321.41
2023-02-02T17:20:04.883Z,102322.38
2023-02-02T17:25:06.941Z,102327.47
2023-02-02T17:30:15.385Z,102332.22
2023-02-02T17:35:21.103Z,102322.75
2023-02-02T17:40:24.136Z,102320.66
2023-02-02T17:45:33.960Z,102325.00
2023-02-02T17:50:37.160Z,102316.66
2023-02-02T17:55:41.927Z,102310.03
2023-02-02T18:00:46.711Z,102309.41
2023-02-02T18:05:48.766Z,102311.03
2023-02-02T18:10:50.409Z,102301.19
2023-02-02T18:15:53.603Z,102309.31
2023-02-02T18:20:55.232Z,102301.44
2023-02-02T18:25:56.806Z,102313.28
2023-02-02T18:30:58.497Z,102314.16
2023-02-02T18:36:00.280Z,102309.53
2023-02-02T18:41:03.649Z,102310.41
2023-02-02T18:46:09.009Z,102304.69
2023-02-02T18:51:16.542Z,102292.97
2023-02-02T18:56:18.394Z,102290.97
2023-02-02T19:01:21.279Z,102284.25
2023-02-02T19:06:42.475Z,102287.84
2023-02-02T19:11:49.843Z,102285.72
2023-02-02T19:16:52.644Z,102304.31
2023-02-02T19:21:57.146Z,102303.69
2023-02-02T19:33:17.329Z,102301.16
2023-02-02T19:38:24.016Z,102302.16
2023-02-02T19:43:33.571Z,102315.00
2023-02-02T19:48:35.499Z,102318.50
2023-02-02T19:53:42.812Z,102325.72
2023-02-02T19:58:45.080Z,102331.22
2023-02-02T20:03:48.079Z,102337.31
2023-02-02T20:08:49.972Z,102342.06
2023-02-02T20:13:54.650Z,102324.72
2023-02-02T20:18:57.539Z,102337.16
2023-02-02T20:23:59.653Z,102347.38
2023-02-02T20:29:17.915Z,102338.41
2023-02-02T20:34:33.017Z,102351.28
2023-02-02T20:39:55.221Z,102350.13
2023-02-02T20:45:02.247Z,102362.13
2023-02-02T20:50:10.266Z,102358.34
2023-02-02T20:55:12.417Z,102358.75
2023-02-02T21:00:16.709Z,102346.78
2023-02-02T21:05:18.375Z,102324.09
2023-02-02T21:10:27.379Z,102336.69
2023-02-02T21:15:29.252Z,102335.22
2023-02-02T21:20:31.865Z,102340.19
2023-02-02T21:25:33.511Z,102361.88
2023-02-02T21:30:37.274Z,102355.91
2023-02-02T21:35:39.140Z,102354.91
2023-02-02T21:40:42.889Z,102354.41
2023-02-02T21:45:50.674Z,102335.56
2023-02-02T21:50:53.005Z,102339.31
2023-02-02T21:55:59.816Z,102323.34
2023-02-02T22:01:16.580Z,102328.72
2023-02-02T22:06:38.364Z,102323.97
2023-02-02T22:11:45.894Z,102321.22
2023-02-02T22:16:58.003Z,102308.03
2023-02-02T22:22:25.723Z,102306.03
2023-02-02T22:27:47.603Z,102287.13
2023-02-02T22:32:49.258Z,102268.78
2023-02-02T22:37:54.052Z,102262.19
2023-02-02T22:43:00.763Z,102235.94
2023-02-02T22:48:02.494Z,102222.00
2023-02-02T22:53:04.785Z,102217.03
2023-02-02T22:58:06.485Z,102219.63
2023-02-02T23:03:08.279Z,102235.72
2023-02-02T23:08:10.008Z,102231.09
2023-02-02T23:13:11.704Z,102244.56
2023-02-02T23:18:13.504Z,102234.84
2023-02-02T23:23:15.148Z,102227.25
2023-02-02T23:28:16.781Z,102237.31
2023-02-02T23:33:18.554Z,102240.31
2023-02-02T23:38:20.286Z,102245.81
2023-02-02T23:43:21.956Z,102244.69
2023-02-02T23:48:26.817Z,102263.13
2023-02-02T23:53:28.655Z,102255.91
2023-02-02T23:58:30.312Z,102270.81
